createdAt,value
2022-08-16T00:02:01.347Z,6.53
2022-08-16T00:04:47.646Z,6.75
2022-08-16T00:07:34.628Z,6.18
2022-08-16T00:10:20.644Z,6.65
2022-08-16T00:12:59.929Z,6.10
2022-08-16T00:15:51.781Z,6.63
2022-08-16T00:18:29.957Z,6.60
2022-08-16T00:21:15.247Z,6.63
2022-08-16T00:24:04.674Z,7.00
2022-08-16T00:26:44.981Z,6.82
2022-08-16T00:29:24.297Z,6.38
2022-08-16T00:32:00.867Z,6.88
2022-08-16T00:34:52.370Z,6.70
2022-08-16T00:37:57.296Z,7.28
2022-08-16T00:40:50.867Z,6.68
2022-08-16T00:43:42.503Z,7.07
2022-08-16T00:46:33.724Z,7.68
2022-08-16T00:49:17.268Z,8.65
2022-08-16T00:52:01.140Z,7.72
2022-08-16T00:54:39.875Z,7.38
2022-08-16T00:57:23.999Z,7.40
2022-08-16T01:00:04.620Z,7.45
2022-08-16T01:02:45.893Z,7.57
2022-08-16T01:08:34.873Z,7.35
2022-08-16T01:11:03.649Z,7.90
2022-08-16T01:13:43.913Z,8.02
2022-08-16T01:16:28.419Z,7.63
2022-08-16T01:19:19.954Z,7.97
2022-08-16T01:22:47.619Z,8.70
2022-08-16T01:25:07.961Z,8.35
2022-08-16T01:28:04.673Z,9.20
2022-08-16T01:30:49.511Z,9.00
2022-08-16T01:33:35.881Z,8.65
2022-08-16T01:36:15.637Z,9.90
2022-08-16T01:38:57.145Z,9.73
2022-08-16T01:41:42.062Z,9.05
2022-08-16T01:44:12.426Z,10.55
2022-08-16T01:46:57.409Z,8.60
2022-08-16T01:49:45.364Z,9.05
2022-08-16T01:55:40.637Z,9.00
2022-08-16T01:58:21.039Z,8.88
2022-08-16T02:01:05.352Z,8.98
2022-08-16T02:03:52.091Z,8.60
2022-08-16T02:06:34.640Z,8.35
2022-08-16T02:09:23.076Z,8.48
2022-08-16T02:12:50.006Z,8.70
2022-08-16T02:15:09.040Z,9.05
2022-08-16T02:17:44.082Z,10.18
2022-08-16T02:20:26.128Z,9.05
2022-08-16T02:23:05.941Z,9.35
2022-08-16T02:25:50.688Z,10.15
2022-08-16T02:28:47.167Z,9.52
2022-08-16T02:32:03.589Z,11.52
2022-08-16T02:34:40.844Z,10.27
2022-08-16T02:37:21.274Z,10.95
2022-08-16T02:39:57.265Z,10.25
2022-08-16T02:42:38.315Z,10.38
2022-08-16T02:45:12.845Z,10.50
2022-08-16T02:48:00.137Z,10.70
2022-08-16T02:51:05.836Z,10.95
2022-08-16T02:53:44.855Z,10.30
2022-08-16T02:56:32.256Z,10.77
2022-08-16T02:59:14.532Z,11.45
2022-08-16T03:01:53.608Z,11.63
2022-08-16T03:04:52.113Z,11.68
2022-08-16T03:07:37.336Z,11.80
2022-08-16T03:10:18.809Z,11.90
2022-08-16T03:12:55.462Z,11.88
2022-08-16T03:15:40.153Z,12.57
2022-08-16T03:18:34.665Z,12.18
2022-08-16T03:21:21.678Z,13.05
2022-08-16T03:24:29.322Z,12.95
2022-08-16T03:27:11.471Z,14.23
2022-08-16T03:29:54.492Z,13.35
2022-08-16T03:32:30.231Z,16.40
2022-08-16T03:35:13.190Z,16.30
2022-08-16T03:38:03.305Z,15.70
2022-08-16T03:40:52.771Z,17.27
2022-08-16T03:43:51.968Z,18.57
2022-08-16T03:46:47.749Z,16.95
2022-08-16T03:49:41.180Z,16.52
2022-08-16T03:52:31.398Z,16.88
2022-08-16T03:55:15.772Z,16.67
2022-08-16T03:57:56.474Z,15.85
2022-08-16T04:00:41.037Z,17.10
2022-08-16T04:03:25.132Z,17.38
2022-08-16T04:06:08.437Z,17.05
2022-08-16T04:08:50.382Z,16.80
2022-08-16T04:11:29.191Z,16.13
2022-08-16T04:14:32.865Z,16.92
2022-08-16T04:17:12.198Z,15.95
2022-08-16T04:19:59.933Z,15.10
2022-08-16T04:25:35.379Z,15.85
2022-08-16T04:28:29.284Z,14.68
2022-08-16T04:31:33.197Z,15.82
2022-08-16T04:34:14.142Z,15.32
2022-08-16T04:36:57.188Z,15.88
2022-08-16T04:42:35.936Z,15.98
2022-08-16T04:45:18.229Z,16.05
2022-08-16T04:48:28.584Z,16.48
2022-08-16T04:51:18.095Z,15.45
2022-08-16T04:54:05.561Z,15.77
2022-08-16T04:56:48.727Z,14.02
2022-08-16T04:59:29.540Z,14.07
2022-08-16T05:02:03.601Z,14.88
2022-08-16T05:05:08.321Z,13.10
2022-08-16T05:07:59.493Z,11.27
2022-08-16T05:10:47.099Z,10.73
2022-08-16T05:13:40.300Z,9.73
2022-08-16T05:16:39.192Z,9.88
2022-08-16T05:19:24.250Z,8.57
2022-08-16T05:22:30.165Z,9.73
2022-08-16T05:25:12.412Z,9.20
2022-08-16T05:27:55.235Z,9.60
2022-08-16T05:30:38.478Z,9.70
2022-08-16T05:33:32.522Z,9.18
2022-08-16T05:36:16.221Z,8.38
2022-08-16T05:39:04.941Z,8.88
2022-08-16T05:41:44.960Z,9.00
2022-08-16T05:44:25.212Z,8.02
2022-08-16T05:47:15.325Z,7.47
2022-08-16T05:49:59.927Z,7.90
2022-08-16T05:52:44.848Z,8.02
2022-08-16T05:55:25.633Z,8.13
2022-08-16T05:58:19.985Z,7.75
2022-08-16T06:01:12.577Z,8.02
2022-08-16T06:03:53.586Z,7.75
2022-08-16T06:06:56.053Z,7.78
2022-08-16T06:09:43.606Z,6.82
2022-08-16T06:12:28.819Z,7.50
2022-08-16T06:15:16.576Z,6.22
2022-08-16T06:17:53.608Z,6.75
2022-08-16T06:20:55.046Z,6.63
2022-08-16T06:23:39.197Z,5.78
2022-08-16T06:26:20.687Z,5.95
2022-08-16T06:28:52.582Z,5.82
2022-08-16T06:31:46.667Z,5.57
2022-08-16T06:34:56.193Z,6.43
2022-08-16T06:37:26.699Z,5.32
2022-08-16T06:40:19.893Z,6.25
2022-08-16T06:43:07.194Z,6.18
2022-08-16T06:45:58.164Z,6.57
2022-08-16T06:48:42.865Z,6.00
2022-08-16T06:51:46.406Z,6.00
2022-08-16T06:54:34.393Z,6.68
2022-08-16T06:57:16.667Z,6.30
2022-08-16T07:00:00.215Z,7.22
2022-08-16T07:02:51.803Z,6.35
2022-08-16T07:05:41.327Z,6.20
2022-08-16T07:08:32.785Z,6.13
2022-08-16T07:11:13.641Z,5.70
2022-08-16T07:14:00.233Z,5.88
2022-08-16T07:16:52.638Z,6.15
2022-08-16T07:20:29.940Z,5.85
2022-08-16T07:22:37.182Z,6.55
2022-08-16T07:25:26.905Z,6.78
2022-08-16T07:28:02.854Z,4.93
2022-08-16T07:30:48.564Z,6.18
2022-08-16T07:33:52.070Z,5.47
2022-08-16T07:36:35.397Z,5.97
2022-08-16T07:39:11.729Z,5.28
2022-08-16T07:41:57.082Z,5.45
2022-08-16T07:44:47.636Z,5.57
2022-08-16T07:47:31.552Z,5.75
2022-08-16T07:50:08.284Z,4.70
2022-08-16T07:53:11.616Z,5.35
2022-08-16T07:55:55.961Z,5.85
2022-08-16T07:58:45.794Z,5.60
2022-08-16T08:01:29.658Z,4.57
2022-08-16T08:04:03.888Z,4.93
2022-08-16T08:06:45.195Z,4.95
2022-08-16T08:09:26.172Z,4.82
2022-08-16T08:12:31.303Z,4.47
2022-08-16T08:15:12.368Z,4.47
2022-08-16T08:17:54.274Z,4.22
2022-08-16T08:20:35.523Z,5.18
2022-08-16T08:23:21.019Z,4.93
2022-08-16T08:26:09.900Z,4.30
2022-08-16T08:28:50.298Z,3.70
2022-08-16T08:31:33.453Z,3.92
2022-08-16T08:34:07.898Z,2.90
2022-08-16T08:36:54.549Z,4.00
2022-08-16T08:39:55.344Z,3.95
2022-08-16T08:42:37.285Z,3.22
2022-08-16T08:45:43.048Z,3.58
2022-08-16T08:48:34.166Z,3.38
2022-08-16T08:51:35.825Z,3.53
2022-08-16T08:54:23.043Z,3.58
2022-08-16T08:57:06.720Z,3.60
2022-08-16T08:59:47.059Z,3.17
2022-08-16T09:02:31.702Z,2.97
2022-08-16T09:05:15.729Z,2.85
2022-08-16T09:08:00.837Z,2.80
2022-08-16T09:10:59.210Z,3.05
2022-08-16T09:13:38.045Z,3.13
2022-08-16T09:17:01.243Z,3.17
2022-08-16T09:19:32.835Z,3.05
2022-08-16T09:22:19.724Z,2.58
2022-08-16T09:25:11.089Z,2.70
2022-08-16T09:27:57.720Z,3.40
2022-08-16T09:30:43.196Z,3.75
2022-08-16T09:33:23.530Z,3.40
2022-08-16T09:36:04.221Z,3.10
2022-08-16T09:38:36.261Z,3.50
2022-08-16T09:41:14.781Z,4.00
2022-08-16T09:44:00.174Z,3.47
2022-08-16T09:46:49.121Z,3.47
2022-08-16T09:49:37.135Z,4.15
2022-08-16T09:52:10.023Z,3.70
2022-08-16T09:54:51.111Z,3.50
2022-08-16T09:57:23.401Z,3.58
2022-08-16T10:00:01.151Z,3.50
2022-08-16T10:02:53.335Z,3.25
2022-08-16T10:05:37.865Z,3.53
2022-08-16T10:08:26.824Z,3.58
2022-08-16T10:11:24.689Z,3.72
2022-08-16T10:14:05.623Z,2.95
2022-08-16T10:16:40.480Z,3.58
2022-08-16T10:19:19.359Z,3.30
2022-08-16T10:21:56.600Z,2.97
2022-08-16T10:24:39.688Z,3.83
2022-08-16T10:27:26.951Z,3.63
2022-08-16T10:30:07.241Z,3.33
2022-08-16T10:33:17.011Z,3.33
2022-08-16T10:35:50.301Z,4.18
2022-08-16T10:38:36.577Z,3.50
2022-08-16T10:41:15.887Z,3.30
2022-08-16T10:43:57.119Z,3.60
2022-08-16T10:46:41.448Z,3.53
2022-08-16T10:49:22.623Z,3.80
2022-08-16T10:52:19.047Z,3.22
2022-08-16T10:58:11.366Z,3.38
2022-08-16T11:00:47.675Z,3.05
2022-08-16T11:03:41.686Z,3.08
2022-08-16T11:06:26.935Z,2.90
2022-08-16T11:09:24.621Z,3.43
2022-08-16T11:12:14.783Z,3.08
2022-08-16T11:15:17.331Z,2.35
2022-08-16T11:20:53.612Z,2.78
2022-08-16T11:23:28.990Z,2.92
2022-08-16T11:26:10.514Z,2.72
2022-08-16T11:29:16.756Z,2.88
2022-08-16T11:31:54.568Z,2.85
2022-08-16T11:35:03.978Z,3.22
2022-08-16T11:38:05.859Z,2.97
2022-08-16T11:40:52.313Z,2.72
2022-08-16T11:43:31.916Z,2.72
2022-08-16T11:46:42.894Z,3.13
2022-08-16T11:49:14.337Z,2.95
2022-08-16T11:51:52.005Z,2.80
2022-08-16T11:54:35.762Z,2.83
2022-08-16T11:57:12.019Z,2.72
2022-08-16T11:59:45.385Z,2.72
2022-08-16T12:02:32.656Z,2.85
2022-08-16T12:05:08.906Z,3.15
2022-08-16T12:07:50.804Z,3.45
2022-08-16T12:10:36.488Z,3.33
2022-08-16T12:13:15.472Z,3.17
2022-08-16T12:15:55.969Z,2.63
2022-08-16T12:18:50.243Z,3.10
2022-08-16T12:21:35.962Z,3.10
2022-08-16T12:24:28.488Z,3.17
2022-08-16T12:27:05.442Z,3.30
2022-08-16T12:29:44.746Z,2.63
2022-08-16T12:32:27.152Z,2.67
2022-08-16T12:35:11.567Z,3.08
2022-08-16T12:37:55.458Z,2.97
2022-08-16T12:40:37.538Z,2.78
2022-08-16T12:43:16.561Z,3.03
2022-08-16T12:45:55.500Z,2.90
2022-08-16T12:48:52.675Z,2.95
2022-08-16T12:51:57.667Z,2.35
2022-08-16T12:54:30.490Z,2.45
2022-08-16T12:57:14.312Z,2.65
2022-08-16T12:59:59.690Z,2.90
2022-08-16T13:02:40.449Z,2.35
2022-08-16T13:05:14.244Z,2.72
2022-08-16T13:10:36.950Z,2.85
2022-08-16T13:13:16.561Z,2.83
2022-08-16T13:16:15.170Z,2.85
2022-08-16T13:19:01.534Z,2.83
2022-08-16T13:21:36.896Z,3.47
2022-08-16T13:24:17.515Z,2.65
2022-08-16T13:26:54.893Z,2.80
2022-08-16T13:29:39.831Z,2.50
2022-08-16T13:32:39.851Z,2.22
2022-08-16T13:35:19.571Z,2.58
2022-08-16T13:37:55.405Z,2.60
2022-08-16T13:40:31.107Z,2.67
2022-08-16T13:43:11.779Z,2.40
2022-08-16T13:45:50.413Z,2.70
2022-08-16T13:48:43.072Z,2.63
2022-08-16T13:51:23.779Z,2.60
2022-08-16T13:54:05.957Z,2.90
2022-08-16T13:56:39.821Z,3.00
2022-08-16T13:59:20.476Z,2.58
2022-08-16T14:02:02.822Z,2.70
2022-08-16T14:04:43.067Z,3.00
2022-08-16T14:07:29.744Z,2.35
2022-08-16T14:10:15.323Z,2.67
2022-08-16T14:12:52.975Z,2.67
2022-08-16T14:15:30.842Z,2.70
2022-08-16T14:18:17.146Z,2.80
2022-08-16T14:20:59.171Z,2.50
2022-08-16T14:23:39.236Z,2.90
2022-08-16T14:26:21.789Z,2.67
2022-08-16T14:29:06.611Z,3.28
2022-08-16T14:31:43.553Z,3.40
2022-08-16T14:34:25.614Z,2.70
2022-08-16T14:37:03.626Z,3.17
2022-08-16T14:39:47.716Z,2.92
2022-08-16T14:42:23.518Z,3.00
2022-08-16T14:45:00.253Z,2.80
2022-08-16T14:47:38.233Z,2.80
2022-08-16T14:50:19.965Z,3.13
2022-08-16T14:53:09.193Z,3.35
2022-08-16T14:55:51.328Z,3.33
2022-08-16T14:58:36.817Z,3.38
2022-08-16T15:01:13.623Z,3.80
2022-08-16T15:03:55.250Z,3.03
2022-08-16T15:06:30.436Z,3.05
2022-08-16T15:09:07.756Z,2.97
2022-08-16T15:11:44.869Z,3.45
2022-08-16T15:14:28.244Z,2.97
2022-08-16T15:16:57.948Z,3.22
2022-08-16T15:19:32.138Z,2.80
2022-08-16T15:22:15.670Z,3.08
2022-08-16T15:24:59.209Z,3.08
2022-08-16T15:27:42.398Z,2.70
2022-08-16T15:33:26.953Z,3.13
2022-08-16T15:36:12.287Z,3.42
2022-08-16T15:39:02.734Z,3.20
2022-08-16T15:41:53.264Z,3.65
2022-08-16T15:44:44.718Z,3.33
2022-08-16T15:47:38.228Z,3.58
2022-08-16T15:50:20.232Z,3.45
2022-08-16T15:53:00.683Z,3.20
2022-08-16T15:55:37.678Z,2.95
2022-08-16T15:58:35.425Z,3.35
2022-08-16T16:01:25.714Z,3.35
2022-08-16T16:04:00.007Z,3.20
2022-08-16T16:06:40.614Z,3.03
2022-08-16T16:09:16.846Z,2.85
2022-08-16T16:11:59.925Z,2.92
2022-08-16T16:14:41.606Z,3.20
2022-08-16T16:17:20.496Z,2.80
2022-08-16T16:20:04.072Z,2.50
2022-08-16T16:22:38.911Z,2.75
2022-08-16T16:25:31.486Z,2.33
2022-08-16T16:28:46.400Z,2.22
2022-08-16T16:31:20.453Z,2.83
2022-08-16T16:33:58.800Z,2.45
2022-08-16T16:36:43.692Z,2.10
2022-08-16T16:39:32.552Z,2.00
2022-08-16T16:42:29.410Z,2.70
2022-08-16T16:45:16.693Z,2.65
2022-08-16T16:47:57.929Z,2.25
2022-08-16T16:51:00.776Z,2.85
2022-08-16T16:53:56.131Z,2.30
2022-08-16T16:56:37.856Z,3.17
2022-08-16T16:59:22.929Z,2.58
2022-08-16T17:02:41.746Z,2.65
2022-08-16T17:05:09.366Z,3.05
2022-08-16T17:07:55.319Z,3.08
2022-08-16T17:10:46.304Z,3.00
2022-08-16T17:13:32.935Z,2.97
2022-08-16T17:16:18.420Z,2.70
2022-08-16T17:19:14.951Z,2.78
2022-08-16T17:22:07.192Z,3.42
2022-08-16T17:25:07.431Z,2.90
2022-08-16T17:28:00.282Z,3.55
2022-08-16T17:30:45.199Z,2.90
2022-08-16T17:33:54.365Z,3.35
2022-08-16T17:36:52.810Z,3.47
2022-08-16T17:39:53.414Z,3.70
2022-08-16T17:42:47.945Z,3.60
2022-08-16T17:45:33.157Z,3.40
2022-08-16T17:48:14.154Z,3.58
2022-08-16T17:50:57.693Z,3.30
2022-08-16T17:53:40.658Z,4.18
2022-08-16T17:56:24.147Z,3.30
2022-08-16T17:59:04.651Z,3.40
2022-08-16T18:01:46.519Z,3.88
2022-08-16T18:04:48.891Z,3.63
2022-08-16T18:07:30.641Z,3.85
2022-08-16T18:10:13.070Z,4.13
2022-08-16T18:13:05.758Z,4.20
2022-08-16T18:16:00.352Z,3.97
2022-08-16T18:18:44.255Z,3.78
2022-08-16T18:21:37.515Z,4.25
2022-08-16T18:24:13.439Z,4.28
2022-08-16T18:26:56.309Z,3.63
2022-08-16T18:29:38.866Z,4.22
2022-08-16T18:32:30.500Z,4.43
2022-08-16T18:35:19.028Z,3.92
2022-08-16T18:37:55.275Z,4.45
2022-08-16T18:40:54.218Z,3.83
2022-08-16T18:44:22.947Z,3.80
2022-08-16T18:46:36.006Z,4.13
2022-08-16T18:49:29.187Z,4.13
2022-08-16T18:52:07.080Z,4.10
2022-08-16T18:55:01.750Z,3.97
2022-08-16T18:58:02.703Z,3.90
2022-08-16T19:00:55.971Z,4.80
2022-08-16T19:03:29.506Z,4.28
2022-08-16T19:06:25.333Z,4.55
2022-08-16T19:09:10.567Z,4.57
2022-08-16T19:11:50.812Z,4.38
2022-08-16T19:14:39.259Z,4.85
2022-08-16T19:17:28.756Z,4.47
2022-08-16T19:20:10.484Z,4.57
2022-08-16T19:23:05.345Z,4.50
2022-08-16T19:25:57.433Z,4.20
2022-08-16T19:28:51.535Z,4.43
2022-08-16T19:31:40.246Z,4.47
2022-08-16T19:37:09.555Z,4.65
2022-08-16T19:39:55.741Z,4.18
2022-08-16T19:42:33.978Z,4.40
2022-08-16T19:45:20.852Z,4.25
2022-08-16T19:48:03.783Z,4.88
2022-08-16T19:50:53.312Z,4.77
2022-08-16T19:53:41.346Z,4.88
2022-08-16T19:56:23.153Z,4.75
2022-08-16T19:59:18.757Z,4.75
2022-08-16T20:02:11.518Z,5.03
2022-08-16T20:05:24.235Z,5.00
2022-08-16T20:08:04.868Z,4.45
2022-08-16T20:10:45.263Z,5.60
2022-08-16T20:13:31.142Z,5.32
2022-08-16T20:16:20.552Z,5.22
2022-08-16T20:19:04.190Z,5.13
2022-08-16T20:21:51.228Z,5.20
2022-08-16T20:24:35.899Z,4.93
2022-08-16T20:27:14.069Z,5.13
2022-08-16T20:30:04.923Z,5.05
2022-08-16T20:32:43.015Z,5.07
2022-08-16T20:35:26.938Z,4.70
2022-08-16T20:38:08.924Z,5.15
2022-08-16T20:40:54.356Z,6.07
2022-08-16T20:43:41.179Z,5.45
2022-08-16T20:46:21.028Z,5.40
2022-08-16T20:48:58.619Z,5.78
2022-08-16T20:51:32.902Z,5.75
2022-08-16T20:54:26.248Z,5.53
2022-08-16T20:57:01.298Z,6.28
2022-08-16T20:59:49.965Z,6.22
2022-08-16T21:02:30.344Z,5.57
2022-08-16T21:05:12.345Z,6.57
2022-08-16T21:08:50.645Z,6.30
2022-08-16T21:11:15.509Z,5.78
2022-08-16T21:14:04.398Z,7.10
2022-08-16T21:16:45.290Z,6.88
2022-08-16T21:19:27.956Z,7.57
2022-08-16T21:22:23.599Z,6.25
2022-08-16T21:25:04.495Z,6.07
2022-08-16T21:27:39.456Z,6.50
2022-08-16T21:30:52.332Z,6.38
2022-08-16T21:33:55.369Z,6.93
2022-08-16T21:36:37.627Z,6.65
2022-08-16T21:39:18.881Z,7.07
2022-08-16T21:41:59.745Z,7.00
2022-08-16T21:44:38.946Z,6.63
2022-08-16T21:47:20.393Z,6.18
2022-08-16T21:50:01.143Z,7.57
2022-08-16T21:52:36.112Z,7.35
2022-08-16T21:55:16.646Z,6.93
2022-08-16T21:58:03.342Z,7.63
2022-08-16T22:00:45.257Z,7.65
2022-08-16T22:03:34.080Z,8.00
2022-08-16T22:06:23.313Z,7.85
2022-08-16T22:09:06.038Z,7.55
2022-08-16T22:11:57.839Z,7.35
2022-08-16T22:14:39.284Z,7.45
2022-08-16T22:19:56.259Z,7.93
2022-08-16T22:22:45.091Z,8.32
2022-08-16T22:25:25.681Z,7.85
2022-08-16T22:28:24.240Z,10.30
2022-08-16T22:31:10.345Z,9.63
2022-08-16T22:33:47.397Z,9.32
2022-08-16T22:36:28.708Z,10.60
2022-08-16T22:39:19.261Z,9.10
2022-08-16T22:41:59.612Z,9.77
2022-08-16T22:44:46.284Z,9.40
2022-08-16T22:47:29.329Z,9.23
2022-08-16T22:50:08.247Z,9.48
2022-08-16T22:52:55.911Z,9.23
2022-08-16T22:55:41.534Z,10.60
2022-08-16T22:58:21.996Z,10.82
2022-08-16T23:01:15.483Z,10.30
2022-08-16T23:04:02.792Z,11.32
2022-08-16T23:06:47.023Z,11.55
2022-08-16T23:09:30.478Z,11.57
2022-08-16T23:12:15.047Z,11.95
2022-08-16T23:14:56.917Z,13.90
2022-08-16T23:17:41.283Z,12.65
2022-08-16T23:20:24.576Z,12.57
2022-08-16T23:23:20.811Z,12.95
2022-08-16T23:25:55.246Z,12.65
2022-08-16T23:28:47.419Z,14.40
2022-08-16T23:31:27.262Z,13.00
2022-08-16T23:34:14.212Z,15.02
2022-08-16T23:36:56.813Z,14.05
2022-08-16T23:39:39.120Z,14.70
2022-08-16T23:42:44.161Z,12.98
2022-08-16T23:45:45.955Z,13.65
2022-08-16T23:48:27.957Z,13.88
2022-08-16T23:51:07.582Z,14.40
2022-08-16T23:53:46.692Z,13.90
2022-08-16T23:56:25.881Z,15.35
2022-08-16T23:59:12.281Z,13.48
